Time;durP1;ratioP1;P1;durP2;ratioP2;P2;SDS_P1;SDS_P2;PMS_P1;PMS_P2;Temp;Humidity;BMP_temperature;BMP_pressure;BME280_temperature;BME280_humidity;BME280_pressure;Samples;Min_cycle;Max_cycle;Signal;HPM_P1;HPM_P2
2021/09/08 00:02:04;;;;;;;;;;;18.40;76.30;;;;;;5009123;28;19916;-50
2021/09/08 00:05:09;;;;;;;;;;;18.40;77.70;;;;;;5009313;28;19916;-50
2021/09/08 00:08:13;;;;;;;;;;;18.50;79.20;;;;;;5009701;28;19917;-50
2021/09/08 00:11:17;;;;;;;;;;;18.50;79.50;;;;;;5009874;28;19940;-52
2021/09/08 00:14:21;;;;;;;;;;;18.50;80.10;;;;;;5010222;28;20303;-52
2021/09/08 00:17:35;;;;;;;;;;;18.40;80.70;;;;;;5009946;28;19917;-54
2021/09/08 00:20:39;;;;;;;;;;;18.30;81.30;;;;;;5010005;28;19924;-54
2021/09/08 00:23:44;;;;;;;;;;;18.20;82.40;;;;;;5009882;28;19921;-51
2021/09/08 00:26:48;;;;;;;;;;;18.10;82.70;;;;;;5013319;28;20449;-50
2021/09/08 00:29:51;;;;;;;;;;;18.00;84.60;;;;;;5013287;28;19989;-50
2021/09/08 00:32:57;;;;;;;;;;;18.10;85.00;;;;;;5013281;28;20302;-50
2021/09/08 00:36:02;;;;;;;;;;;18.00;85.40;;;;;;5013604;28;20287;-50
2021/09/08 00:39:08;;;;;;;;;;;17.70;87.00;;;;;;5013133;28;19917;-55
2021/09/08 00:42:13;;;;;;;;;;;17.70;87.60;;;;;;5013138;28;19916;-51
2021/09/08 00:45:19;;;;;;;;;;;17.60;87.60;;;;;;5013574;28;19917;-51
2021/09/08 00:48:23;;;;;;;;;;;17.60;87.90;;;;;;5013031;28;20291;-53
2021/09/08 00:51:27;;;;;;;;;;;17.50;88.90;;;;;;5012920;28;19920;-50
2021/09/08 00:54:33;;;;;;;;;;;17.40;89.60;;;;;;5013185;28;19921;-49
2021/09/08 00:57:38;;;;;;;;;;;17.30;90.00;;;;;;5012325;28;19917;-49
2021/09/08 01:00:42;;;;;;;;;;;17.20;90.40;;;;;;5012799;28;20301;-51
2021/09/08 01:03:46;;;;;;;;;;;17.10;90.50;;;;;;5011988;28;19909;-49
2021/09/08 01:06:51;;;;;;;;;;;17.10;90.60;;;;;;5012940;28;19924;-49
2021/09/08 01:09:56;;;;;;;;;;;17.10;90.90;;;;;;5012510;28;19920;-51
2021/09/08 01:13:01;;;;;;;;;;;17.10;91.20;;;;;;5012655;28;20422;-50
2021/09/08 01:16:06;;;;;;;;;;;17.10;91.40;;;;;;5012737;28;19920;-52
2021/09/08 01:19:10;;;;;;;;;;;17.00;91.40;;;;;;5012399;28;19932;-51
2021/09/08 01:22:14;;;;;;;;;;;16.90;91.70;;;;;;5012488;28;19916;-50
2021/09/08 01:25:25;;;;;;;;;;;16.90;91.70;;;;;;5012420;28;20390;-52
2021/09/08 01:28:29;;;;;;;;;;;16.80;92.30;;;;;;5012916;28;19920;-50
2021/09/08 01:31:35;;;;;;;;;;;16.90;92.50;;;;;;5011952;28;19914;-50
2021/09/08 01:34:39;;;;;;;;;;;16.90;92.70;;;;;;5012859;28;19909;-53
2021/09/08 01:37:43;;;;;;;;;;;16.90;93.10;;;;;;5012781;28;19932;-49
2021/09/08 01:40:46;;;;;;;;;;;16.80;93.40;;;;;;5012467;28;19975;-49
2021/09/08 01:43:50;;;;;;;;;;;16.90;93.60;;;;;;5012838;28;19917;-53
2021/09/08 01:46:56;;;;;;;;;;;16.90;93.70;;;;;;5012945;28;19917;-51
2021/09/08 01:50:00;;;;;;;;;;;17.00;93.70;;;;;;5012590;28;20288;-55
2021/09/08 01:53:04;;;;;;;;;;;17.00;94.10;;;;;;5012297;28;19920;-51
2021/09/08 01:56:08;;;;;;;;;;;17.00;94.20;;;;;;5012559;28;20450;-50
2021/09/08 01:59:12;;;;;;;;;;;17.10;94.30;;;;;;5012337;28;19916;-50
2021/09/08 02:02:15;;;;;;;;;;;17.20;94.40;;;;;;5012158;28;19916;-50
2021/09/08 02:05:19;;;;;;;;;;;17.20;94.20;;;;;;5012693;28;19920;-50
2021/09/08 02:08:23;;;;;;;;;;;17.20;94.40;;;;;;5011189;28;20391;-52
2021/09/08 02:11:28;;;;;;;;;;;17.20;94.40;;;;;;5011683;28;19921;-54
2021/09/08 02:14:32;;;;;;;;;;;17.20;94.60;;;;;;5011761;28;19920;-50
2021/09/08 02:17:37;;;;;;;;;;;17.20;94.70;;;;;;5011907;28;20395;-52
2021/09/08 02:20:41;;;;;;;;;;;17.10;95.00;;;;;;5011747;28;19916;-50
2021/09/08 02:23:45;;;;;;;;;;;17.10;95.20;;;;;;5011608;28;19916;-51
2021/09/08 02:26:49;;;;;;;;;;;17.20;95.30;;;;;;5011862;28;19916;-51
2021/09/08 02:29:52;;;;;;;;;;;17.20;95.20;;;;;;5011368;28;19935;-52
2021/09/08 02:32:56;;;;;;;;;;;17.10;95.40;;;;;;5011365;28;19925;-55
2021/09/08 02:36:01;;;;;;;;;;;17.10;95.80;;;;;;5011438;28;19921;-55
2021/09/08 02:39:06;;;;;;;;;;;17.00;96.10;;;;;;5011047;28;19916;-50
2021/09/08 02:42:11;;;;;;;;;;;16.90;96.40;;;;;;5011031;28;19916;-51
2021/09/08 02:45:15;;;;;;;;;;;16.70;97.20;;;;;;5011164;28;19932;-50
2021/09/08 02:48:19;;;;;;;;;;;16.50;97.70;;;;;;5010700;28;20287;-51
2021/09/08 02:51:23;;;;;;;;;;;16.40;97.90;;;;;;5010536;28;19929;-50
2021/09/08 02:54:27;;;;;;;;;;;16.30;98.50;;;;;;5011076;28;19921;-50
2021/09/08 02:57:31;;;;;;;;;;;16.20;98.70;;;;;;5009953;28;19921;-50
2021/09/08 03:00:36;;;;;;;;;;;16.10;99.10;;;;;;5009639;28;20300;-50
2021/09/08 03:03:40;;;;;;;;;;;16.10;99.80;;;;;;5011175;28;19924;-50
2021/09/08 03:06:47;;;;;;;;;;;16.00;99.80;;;;;;5010721;28;19917;-49
2021/09/08 03:09:52;;;;;;;;;;;16.10;99.90;;;;;;5010687;28;19933;-49
2021/09/08 03:12:55;;;;;;;;;;;16.10;99.90;;;;;;5010543;28;20295;-52
2021/09/08 03:15:59;;;;;;;;;;;16.00;99.90;;;;;;5010624;28;20300;-51
2021/09/08 03:19:03;;;;;;;;;;;15.90;99.90;;;;;;5011229;28;20299;-51
2021/09/08 03:22:07;;;;;;;;;;;15.90;99.90;;;;;;5010019;28;19916;-53
2021/09/08 03:25:12;;;;;;;;;;;15.90;99.90;;;;;;5010770;28;19921;-52
2021/09/08 03:28:17;;;;;;;;;;;15.90;99.90;;;;;;5010464;28;20316;-49
2021/09/08 03:31:21;;;;;;;;;;;15.90;99.90;;;;;;5010103;28;19921;-50
2021/09/08 03:34:25;;;;;;;;;;;15.80;99.90;;;;;;5010516;28;19917;-50
2021/09/08 03:37:29;;;;;;;;;;;15.80;99.90;;;;;;5010277;28;19916;-50
2021/09/08 03:40:33;;;;;;;;;;;15.90;99.90;;;;;;5009046;28;19921;-50
2021/09/08 03:43:37;;;;;;;;;;;15.80;99.90;;;;;;5010437;28;19920;-49
2021/09/08 03:46:41;;;;;;;;;;;15.80;99.90;;;;;;5010291;28;19916;-50
2021/09/08 03:49:45;;;;;;;;;;;15.80;99.90;;;;;;5010138;28;19916;-50
2021/09/08 03:52:50;;;;;;;;;;;15.80;99.90;;;;;;5009606;28;19921;-50
2021/09/08 03:55:54;;;;;;;;;;;15.60;99.90;;;;;;5010245;28;19916;-50
2021/09/08 03:58:58;;;;;;;;;;;15.70;99.90;;;;;;5009968;28;19963;-50
2021/09/08 04:02:03;;;;;;;;;;;15.70;99.90;;;;;;5014077;28;19916;-50
2021/09/08 04:05:07;;;;;;;;;;;15.70;99.90;;;;;;5013208;28;19951;-50
2021/09/08 04:08:11;;;;;;;;;;;15.70;99.90;;;;;;5014085;28;19917;-51
2021/09/08 04:11:15;;;;;;;;;;;15.70;99.90;;;;;;5013352;28;19937;-50
2021/09/08 04:14:19;;;;;;;;;;;15.70;99.90;;;;;;5013374;28;19921;-51
2021/09/08 04:17:23;;;;;;;;;;;15.60;99.90;;;;;;5013880;28;20295;-50
2021/09/08 04:20:27;;;;;;;;;;;15.60;99.90;;;;;;5014079;28;20386;-50
2021/09/08 04:23:31;;;;;;;;;;;15.60;99.90;;;;;;5014087;28;20295;-49
2021/09/08 04:26:36;;;;;;;;;;;15.50;99.90;;;;;;5013954;28;19924;-50
2021/09/08 04:29:39;;;;;;;;;;;15.40;99.90;;;;;;5013932;28;19932;-49
2021/09/08 04:32:44;;;;;;;;;;;15.50;99.90;;;;;;5013120;28;20076;-50
2021/09/08 04:35:48;;;;;;;;;;;15.40;99.90;;;;;;5014115;28;19921;-50
2021/09/08 04:38:53;;;;;;;;;;;15.30;99.90;;;;;;5013881;28;19932;-51
2021/09/08 04:41:57;;;;;;;;;;;15.30;99.90;;;;;;5013776;28;19937;-49
2021/09/08 04:45:02;;;;;;;;;;;15.10;99.90;;;;;;5014096;28;19921;-50
2021/09/08 04:48:06;;;;;;;;;;;15.10;99.90;;;;;;5013008;28;19932;-49
2021/09/08 04:51:11;;;;;;;;;;;15.10;99.90;;;;;;5013431;28;19928;-51
2021/09/08 04:54:15;;;;;;;;;;;15.10;99.90;;;;;;5012277;28;19928;-50
2021/09/08 04:57:20;;;;;;;;;;;15.00;99.90;;;;;;5011502;28;19916;-51
2021/09/08 05:00:23;;;;;;;;;;;15.00;99.90;;;;;;5012137;28;19909;-49
2021/09/08 05:03:27;;;;;;;;;;;14.90;99.90;;;;;;5011946;28;19916;-50
2021/09/08 05:06:31;;;;;;;;;;;14.90;99.90;;;;;;5012165;28;19921;-50
2021/09/08 05:09:35;;;;;;;;;;;14.90;99.90;;;;;;5012306;28;19910;-50
2021/09/08 05:12:39;;;;;;;;;;;14.80;99.90;;;;;;5011141;28;19936;-50
2021/09/08 05:15:43;;;;;;;;;;;14.70;99.90;;;;;;5011335;28;19920;-52
2021/09/08 05:18:48;;;;;;;;;;;14.70;99.90;;;;;;5011898;28;19916;-50
2021/09/08 05:21:52;;;;;;;;;;;14.70;99.90;;;;;;5012031;28;19916;-51
2021/09/08 05:24:56;;;;;;;;;;;14.80;99.90;;;;;;5011866;28;19936;-51
2021/09/08 05:28:00;;;;;;;;;;;15.00;99.90;;;;;;5012015;28;19917;-50
2021/09/08 05:31:04;;;;;;;;;;;15.10;99.90;;;;;;5011446;28;19917;-50
2021/09/08 05:34:08;;;;;;;;;;;15.20;99.90;;;;;;5011453;28;19920;-50
2021/09/08 05:37:12;;;;;;;;;;;15.40;99.90;;;;;;5011808;28;19916;-51
2021/09/08 05:40:16;;;;;;;;;;;17.10;99.90;;;;;;5011436;28;19932;-51
2021/09/08 05:43:20;;;;;;;;;;;18.80;99.10;;;;;;5011416;28;20391;-52
2021/09/08 05:46:24;;;;;;;;;;;21.00;95.70;;;;;;5011339;28;19916;-50
2021/09/08 05:49:28;;;;;;;;;;;23.00;91.70;;;;;;5011408;28;19932;-54
2021/09/08 05:52:32;;;;;;;;;;;24.40;87.40;;;;;;4952248;28;1662038;-52
2021/09/08 05:55:36;;;;;;;;;;;25.30;83.50;;;;;;5024891;28;20279;-51
2021/09/08 05:58:40;;;;;;;;;;;26.00;79.90;;;;;;5026614;28;19936;-52
2021/09/08 06:01:45;;;;;;;;;;;27.30;76.50;;;;;;5024307;28;19920;-55
2021/09/08 06:04:49;;;;;;;;;;;27.70;75.20;;;;;;5030656;28;20302;-50
2021/09/08 06:07:56;;;;;;;;;;;28.70;72.20;;;;;;5030206;28;19920;-53
2021/09/08 06:11:00;;;;;;;;;;;28.50;71.10;;;;;;5028440;28;19920;-53
2021/09/08 06:14:04;;;;;;;;;;;29.10;69.10;;;;;;5029524;28;19948;-54
2021/09/08 06:17:09;;;;;;;;;;;29.50;67.30;;;;;;5026551;28;19935;-52
2021/09/08 06:20:13;;;;;;;;;;;29.70;68.10;;;;;;5011646;28;19916;-51
2021/09/08 06:23:18;;;;;;;;;;;29.30;66.70;;;;;;5026418;28;19915;-53
2021/09/08 06:26:23;;;;;;;;;;;28.90;66.50;;;;;;5018996;28;19917;-51
2021/09/08 06:29:28;;;;;;;;;;;27.10;69.10;;;;;;5020117;28;19920;-51
2021/09/08 06:32:33;;;;;;;;;;;28.10;68.30;;;;;;5042057;28;19924;-51
2021/09/08 06:35:37;;;;;;;;;;;28.90;67.20;;;;;;5043965;28;19916;-51
2021/09/08 06:38:41;;;;;;;;;;;30.00;66.00;;;;;;5030540;28;19920;-52
2021/09/08 06:41:44;;;;;;;;;;;28.70;65.40;;;;;;5028934;28;19932;-52
2021/09/08 06:44:52;;;;;;;;;;;29.90;65.20;;;;;;5028492;28;19924;-52
2021/09/08 06:47:56;;;;;;;;;;;30.50;64.80;;;;;;5030685;28;19916;-54
2021/09/08 06:51:00;;;;;;;;;;;31.00;63.00;;;;;;5012016;28;20331;-52
2021/09/08 06:54:05;;;;;;;;;;;31.30;62.60;;;;;;5029862;28;19920;-49
2021/09/08 06:57:12;;;;;;;;;;;31.70;61.90;;;;;;5044449;28;19916;-51
2021/09/08 07:00:16;;;;;;;;;;;29.70;63.30;;;;;;5030457;28;19916;-54
2021/09/08 07:03:20;;;;;;;;;;;28.20;64.90;;;;;;5029161;28;19932;-51
2021/09/08 07:06:24;;;;;;;;;;;28.70;64.00;;;;;;5011813;28;19917;-51
2021/09/08 07:09:28;;;;;;;;;;;27.60;65.40;;;;;;5035028;28;19920;-51
2021/09/08 07:12:32;;;;;;;;;;;29.20;64.20;;;;;;5024426;28;20414;-51
2021/09/08 07:15:36;;;;;;;;;;;29.10;64.20;;;;;;5029615;28;19988;-49
2021/09/08 07:18:40;;;;;;;;;;;30.30;63.00;;;;;;5030694;28;19909;-49
2021/09/08 07:21:43;;;;;;;;;;;30.80;61.70;;;;;;5041493;28;19919;-51
2021/09/08 07:24:47;;;;;;;;;;;28.00;63.90;;;;;;5043469;28;20325;-51
2021/09/08 07:27:51;;;;;;;;;;;28.80;65.20;;;;;;5029495;28;20291;-51
2021/09/08 07:30:55;;;;;;;;;;;29.60;64.20;;;;;;5039330;28;20394;-51
2021/09/08 07:33:59;;;;;;;;;;;28.20;64.20;;;;;;5041279;28;19928;-51
2021/09/08 07:37:04;;;;;;;;;;;29.00;65.10;;;;;;5030241;28;19916;-49
2021/09/08 07:40:08;;;;;;;;;;;29.80;63.20;;;;;;5029343;28;20405;-50
2021/09/08 07:43:12;;;;;;;;;;;31.30;61.90;;;;;;5030231;28;19916;-52
2021/09/08 07:46:16;;;;;;;;;;;30.30;62.40;;;;;;5029324;28;20371;-53
2021/09/08 07:49:20;;;;;;;;;;;32.50;60.80;;;;;;5025805;28;19920;-50
2021/09/08 07:52:25;;;;;;;;;;;30.80;60.60;;;;;;5023169;28;19920;-53
2021/09/08 07:55:30;;;;;;;;;;;28.30;62.90;;;;;;5018328;28;19944;-51
2021/09/08 07:58:34;;;;;;;;;;;28.10;66.10;;;;;;5031505;28;19916;-53
2021/09/08 08:01:38;;;;;;;;;;;29.90;64.20;;;;;;5020681;28;19924;-51
2021/09/08 08:04:42;;;;;;;;;;;27.00;66.40;;;;;;5028468;28;19909;-53
2021/09/08 08:07:48;;;;;;;;;;;26.90;67.20;;;;;;5036223;28;19916;-51
2021/09/08 08:10:52;;;;;;;;;;;27.50;67.90;;;;;;5028806;28;19916;-52
2021/09/08 08:13:57;;;;;;;;;;;28.20;66.70;;;;;;5022714;28;20448;-54
2021/09/08 08:17:01;;;;;;;;;;;28.00;65.60;;;;;;5029750;28;19939;-51
2021/09/08 08:20:08;;;;;;;;;;;31.10;63.60;;;;;;5028590;28;19916;-54
2021/09/08 08:23:12;;;;;;;;;;;33.70;60.10;;;;;;5028093;28;19917;-52
2021/09/08 08:26:18;;;;;;;;;;;35.90;56.30;;;;;;5025996;28;19984;-52
2021/09/08 08:29:22;;;;;;;;;;;36.00;54.90;;;;;;5025630;28;20318;-52
2021/09/08 08:32:26;;;;;;;;;;;31.60;57.90;;;;;;5028042;28;19924;-53
2021/09/08 08:35:29;;;;;;;;;;;30.80;60.90;;;;;;5043071;28;19931;-52
2021/09/08 08:38:33;;;;;;;;;;;31.30;61.00;;;;;;5025798;28;19984;-52
2021/09/08 08:41:38;;;;;;;;;;;32.00;60.10;;;;;;5029465;28;20397;-53
2021/09/08 08:44:42;;;;;;;;;;;32.80;60.20;;;;;;5021806;28;19917;-56
2021/09/08 08:47:46;;;;;;;;;;;33.40;59.40;;;;;;5035122;28;20393;-53
2021/09/08 08:50:52;;;;;;;;;;;34.00;57.20;;;;;;5027740;28;19916;-52
2021/09/08 08:53:56;;;;;;;;;;;33.80;57.40;;;;;;5034351;28;19923;-52
2021/09/08 08:57:01;;;;;;;;;;;35.90;56.90;;;;;;5034801;28;20429;-52
2021/09/08 09:00:05;;;;;;;;;;;35.20;55.20;;;;;;5031384;28;20233;-54
2021/09/08 09:03:22;;;;;;;;;;;34.10;56.00;;;;;;5029146;28;19963;-55
2021/09/08 09:06:27;;;;;;;;;;;34.20;56.40;;;;;;5027284;28;19939;-54
2021/09/08 09:09:31;;;;;;;;;;;34.70;56.80;;;;;;5031094;28;19915;-51
2021/09/08 09:12:37;;;;;;;;;;;34.60;56.00;;;;;;5022185;28;19936;-52
2021/09/08 09:15:41;;;;;;;;;;;36.10;55.30;;;;;;5042124;28;20383;-52
2021/09/08 09:18:47;;;;;;;;;;;37.10;54.60;;;;;;5026313;28;19920;-52
2021/09/08 09:21:52;;;;;;;;;;;38.70;52.90;;;;;;5029161;28;19917;-53
2021/09/08 09:24:56;;;;;;;;;;;35.90;53.20;;;;;;5021976;28;19916;-57
2021/09/08 09:28:02;;;;;;;;;;;36.20;54.20;;;;;;5035026;28;19920;-54
2021/09/08 09:31:17;;;;;;;;;;;37.90;52.70;;;;;;5037737;28;19915;-51
2021/09/08 09:34:21;;;;;;;;;;;35.90;52.40;;;;;;5040547;28;19924;-52
2021/09/08 09:37:30;;;;;;;;;;;38.30;53.70;;;;;;5032574;28;19912;-53
2021/09/08 09:40:36;;;;;;;;;;;39.30;51.30;;;;;;5028231;28;19916;-57
2021/09/08 09:43:43;;;;;;;;;;;38.20;51.40;;;;;;5025249;28;19921;-52
2021/09/08 09:46:49;;;;;;;;;;;36.00;53.80;;;;;;5032510;28;19920;-51
2021/09/08 09:49:55;;;;;;;;;;;35.20;52.90;;;;;;5037469;28;19916;-54
2021/09/08 09:52:59;;;;;;;;;;;33.70;53.00;;;;;;5029068;28;19920;-56
2021/09/08 09:56:04;;;;;;;;;;;34.60;54.50;;;;;;5011345;28;19932;-52
2021/09/08 09:59:08;;;;;;;;;;;35.70;50.80;;;;;;5028377;28;19932;-52
2021/09/08 10:02:13;;;;;;;;;;;36.50;50.90;;;;;;5030811;28;19920;-52
2021/09/08 10:05:17;;;;;;;;;;;38.00;50.40;;;;;;5048922;28;19915;-52
2021/09/08 10:08:22;;;;;;;;;;;37.60;49.20;;;;;;5031447;28;19909;-52
2021/09/08 10:11:32;;;;;;;;;;;36.90;50.10;;;;;;5030453;28;19943;-51
2021/09/08 10:14:37;;;;;;;;;;;40.50;47.90;;;;;;5032405;28;19936;-52
2021/09/08 10:17:42;;;;;;;;;;;39.10;46.60;;;;;;5029755;28;19920;-53
2021/09/08 10:20:51;;;;;;;;;;;37.50;47.70;;;;;;5029785;28;19920;-52
2021/09/08 10:24:00;;;;;;;;;;;35.90;48.40;;;;;;5029579;28;19924;-53
2021/09/08 10:27:18;;;;;;;;;;;39.60;47.20;;;;;;5019276;28;19920;-53
2021/09/08 10:30:24;;;;;;;;;;;42.30;46.20;;;;;;5026764;28;19963;-55
2021/09/08 10:33:28;;;;;;;;;;;44.40;44.20;;;;;;5029612;28;19913;-52
2021/09/08 10:36:34;;;;;;;;;;;45.10;43.30;;;;;;5036486;28;19966;-52
2021/09/08 10:39:40;;;;;;;;;;;41.60;42.60;;;;;;5035927;28;19920;-53
2021/09/08 10:42:48;;;;;;;;;;;40.90;44.70;;;;;;5036356;28;19916;-53
2021/09/08 10:45:53;;;;;;;;;;;41.50;44.80;;;;;;5031453;28;19920;-54
2021/09/08 10:48:58;;;;;;;;;;;41.10;44.20;;;;;;5029603;28;19924;-52
2021/09/08 10:52:03;;;;;;;;;;;39.50;46.20;;;;;;5029239;28;19920;-51
2021/09/08 10:55:20;;;;;;;;;;;39.80;46.00;;;;;;5030096;28;19924;-52
2021/09/08 10:58:44;;;;;;;;;;;35.90;47.00;;;;;;5025528;28;20371;-54
2021/09/08 11:01:53;;;;;;;;;;;36.40;48.60;;;;;;5027284;28;20386;-51
2021/09/08 11:05:00;;;;;;;;;;;39.00;46.90;;;;;;5028147;28;19921;-54
2021/09/08 11:08:04;;;;;;;;;;;41.00;45.30;;;;;;5030339;28;19920;-54
2021/09/08 11:11:08;;;;;;;;;;;36.70;47.00;;;;;;5029317;28;19909;-56
2021/09/08 11:14:12;;;;;;;;;;;35.90;47.60;;;;;;5029186;28;19919;-56
2021/09/08 11:17:19;;;;;;;;;;;34.00;49.50;;;;;;5035180;28;19919;-54
2021/09/08 11:20:24;;;;;;;;;;;37.00;47.70;;;;;;5022541;28;19916;-52
2021/09/08 11:23:28;;;;;;;;;;;37.20;46.90;;;;;;5019314;28;19924;-51
2021/09/08 11:26:33;;;;;;;;;;;37.50;46.90;;;;;;5023955;28;19909;-56
2021/09/08 11:29:37;;;;;;;;;;;37.60;46.50;;;;;;5022722;28;19913;-54
2021/09/08 11:33:01;;;;;;;;;;;35.00;48.30;;;;;;5022851;28;19943;-54
2021/09/08 11:36:13;;;;;;;;;;;34.00;49.30;;;;;;5029536;28;19920;-53
2021/09/08 11:39:18;;;;;;;;;;;36.20;48.50;;;;;;5033609;28;19917;-51
2021/09/08 11:42:26;;;;;;;;;;;35.00;48.10;;;;;;5023724;28;19917;-57
2021/09/08 11:45:30;;;;;;;;;;;35.40;48.50;;;;;;5022607;28;20295;-54
2021/09/08 11:48:35;;;;;;;;;;;38.00;47.00;;;;;;5012641;28;20502;-53
2021/09/08 11:51:43;;;;;;;;;;;35.60;47.30;;;;;;5008817;28;19920;-53
2021/09/08 11:54:48;;;;;;;;;;;34.50;49.60;;;;;;5019662;28;19924;-52
2021/09/08 11:57:52;;;;;;;;;;;38.00;47.80;;;;;;5018233;28;19916;-55
2021/09/08 12:00:57;;;;;;;;;;;39.60;46.10;;;;;;5028769;28;19952;-51
2021/09/08 12:04:03;;;;;;;;;;;40.00;46.50;;;;;;5032102;28;19983;-51
2021/09/08 12:07:08;;;;;;;;;;;41.80;45.00;;;;;;5039365;28;19924;-52
2021/09/08 12:10:12;;;;;;;;;;;43.20;44.30;;;;;;5030191;28;19916;-51
2021/09/08 12:13:29;;;;;;;;;;;42.80;43.80;;;;;;5031758;28;19987;-51
2021/09/08 12:16:40;;;;;;;;;;;39.00;44.90;;;;;;5038050;28;19915;-51
2021/09/08 12:19:47;;;;;;;;;;;41.40;44.90;;;;;;5029352;28;20299;-52
2021/09/08 12:22:51;;;;;;;;;;;41.90;43.70;;;;;;5040029;28;19916;-53
2021/09/08 12:26:11;;;;;;;;;;;36.60;46.70;;;;;;5028395;28;19919;-53
2021/09/08 12:29:15;;;;;;;;;;;39.00;46.70;;;;;;5048993;28;19917;-54
2021/09/08 12:32:19;;;;;;;;;;;40.80;44.80;;;;;;5046042;28;19939;-53
2021/09/08 12:35:36;;;;;;;;;;;42.10;44.20;;;;;;5038087;28;20983;-52
2021/09/08 12:38:41;;;;;;;;;;;42.20;43.70;;;;;;5019348;28;19916;-52
2021/09/08 12:41:52;;;;;;;;;;;41.70;44.00;;;;;;5045035;28;19908;-53
2021/09/08 12:45:05;;;;;;;;;;;40.30;43.80;;;;;;5031071;28;19916;-51
2021/09/08 12:48:09;;;;;;;;;;;41.50;44.40;;;;;;5031654;28;20549;-54
2021/09/08 12:51:13;;;;;;;;;;;40.60;44.60;;;;;;5039416;28;19913;-55
2021/09/08 12:54:19;;;;;;;;;;;39.20;44.40;;;;;;5040966;28;19913;-51
2021/09/08 12:57:32;;;;;;;;;;;39.20;44.70;;;;;;5025591;28;19916;-52
2021/09/08 13:00:36;;;;;;;;;;;40.80;44.60;;;;;;5028562;28;19928;-52
2021/09/08 13:03:40;;;;;;;;;;;37.10;46.30;;;;;;5041665;28;19916;-51
2021/09/08 13:06:45;;;;;;;;;;;35.90;48.20;;;;;;5031726;28;19911;-53
2021/09/08 13:09:49;;;;;;;;;;;37.50;47.10;;;;;;5031041;28;19917;-54
2021/09/08 13:12:53;;;;;;;;;;;37.30;45.80;;;;;;5038365;28;19955;-51
2021/09/08 13:15:57;;;;;;;;;;;38.50;46.60;;;;;;5044333;28;20394;-52
2021/09/08 13:19:01;;;;;;;;;;;40.20;45.50;;;;;;5033573;28;19920;-54
2021/09/08 13:22:06;;;;;;;;;;;41.90;44.60;;;;;;5046400;28;19916;-55
2021/09/08 13:25:11;;;;;;;;;;;43.50;43.30;;;;;;5036915;28;19920;-52
2021/09/08 13:28:16;;;;;;;;;;;44.20;42.90;;;;;;5037476;28;19916;-58
2021/09/08 13:31:20;;;;;;;;;;;45.10;42.50;;;;;;5044643;28;19908;-51
2021/09/08 13:34:24;;;;;;;;;;;44.20;41.70;;;;;;5031556;28;20182;-51
2021/09/08 13:37:30;;;;;;;;;;;38.00;43.70;;;;;;5022181;28;19909;-51
2021/09/08 13:40:34;;;;;;;;;;;35.60;47.60;;;;;;5040508;28;19916;-54
2021/09/08 13:43:38;;;;;;;;;;;34.80;48.40;;;;;;5032144;28;20290;-53
2021/09/08 13:46:43;;;;;;;;;;;33.30;49.40;;;;;;5030482;28;19920;-51
2021/09/08 13:49:47;;;;;;;;;;;32.10;51.60;;;;;;5031924;28;19916;-51
2021/09/08 13:52:51;;;;;;;;;;;33.30;50.20;;;;;;5031523;28;19928;-51
2021/09/08 13:55:55;;;;;;;;;;;34.20;48.50;;;;;;5028787;28;20390;-51
2021/09/08 13:59:00;;;;;;;;;;;35.50;48.20;;;;;;5019352;28;19932;-52
2021/09/08 14:02:04;;;;;;;;;;;36.00;47.50;;;;;;5014482;28;19921;-51
2021/09/08 14:05:08;;;;;;;;;;;34.30;47.90;;;;;;5029124;28;19916;-52
2021/09/08 14:08:15;;;;;;;;;;;36.00;48.10;;;;;;5030577;28;19924;-51
2021/09/08 14:11:19;;;;;;;;;;;36.90;47.00;;;;;;5049587;28;20297;-52
2021/09/08 14:14:23;;;;;;;;;;;37.10;46.90;;;;;;5027629;28;19940;-51
2021/09/08 14:17:30;;;;;;;;;;;37.60;46.70;;;;;;5034175;28;19916;-53
2021/09/08 14:20:35;;;;;;;;;;;38.10;46.30;;;;;;5026259;28;19916;-51
2021/09/08 14:23:40;;;;;;;;;;;38.40;46.60;;;;;;5030214;28;19916;-51
2021/09/08 14:26:45;;;;;;;;;;;37.40;46.40;;;;;;5029817;28;19972;-51
2021/09/08 14:29:51;;;;;;;;;;;36.00;47.50;;;;;;5038037;28;20318;-55
2021/09/08 14:32:55;;;;;;;;;;;34.90;48.80;;;;;;5047528;28;19936;-53
2021/09/08 14:36:00;;;;;;;;;;;35.30;48.70;;;;;;5035384;28;20295;-56
2021/09/08 14:39:05;;;;;;;;;;;35.00;48.70;;;;;;5044414;28;19940;-52
2021/09/08 14:42:09;;;;;;;;;;;34.00;48.70;;;;;;5038700;28;20328;-51
2021/09/08 14:45:16;;;;;;;;;;;32.40;50.50;;;;;;5032540;28;19916;-53
2021/09/08 14:48:20;;;;;;;;;;;32.10;51.50;;;;;;5030763;28;19915;-52
2021/09/08 14:51:24;;;;;;;;;;;31.90;51.20;;;;;;5039058;28;19917;-50
2021/09/08 14:54:29;;;;;;;;;;;32.70;51.20;;;;;;5031343;28;19920;-50
2021/09/08 14:57:34;;;;;;;;;;;33.10;50.40;;;;;;5023456;28;20291;-53
2021/09/08 15:00:39;;;;;;;;;;;32.30;50.40;;;;;;5036930;28;19916;-51
2021/09/08 15:03:44;;;;;;;;;;;31.60;51.20;;;;;;5032981;28;20283;-50
2021/09/08 15:06:50;;;;;;;;;;;31.80;51.40;;;;;;5037326;28;19909;-50
2021/09/08 15:09:54;;;;;;;;;;;32.60;51.00;;;;;;5032828;28;19927;-51
2021/09/08 15:12:58;;;;;;;;;;;31.90;51.40;;;;;;5029861;28;19928;-53
2021/09/08 15:16:05;;;;;;;;;;;31.40;51.90;;;;;;5029473;28;19924;-53
2021/09/08 15:19:09;;;;;;;;;;;30.70;52.20;;;;;;5030107;28;19913;-51
2021/09/08 15:22:14;;;;;;;;;;;31.40;52.20;;;;;;5030344;28;20283;-52
2021/09/08 15:25:19;;;;;;;;;;;32.20;51.30;;;;;;5029295;28;19913;-50
2021/09/08 15:28:24;;;;;;;;;;;31.90;51.40;;;;;;5030396;28;19920;-52
2021/09/08 15:31:28;;;;;;;;;;;32.30;51.50;;;;;;5029936;28;19920;-52
2021/09/08 15:34:35;;;;;;;;;;;31.30;52.00;;;;;;5029296;28;19921;-54
2021/09/08 15:37:39;;;;;;;;;;;30.80;52.50;;;;;;5028149;28;19916;-50
2021/09/08 15:40:43;;;;;;;;;;;31.10;52.20;;;;;;5030017;28;19917;-51
2021/09/08 15:43:47;;;;;;;;;;;30.00;53.00;;;;;;5028968;28;19916;-51
2021/09/08 15:46:51;;;;;;;;;;;30.30;53.00;;;;;;5029135;28;19932;-50
2021/09/08 15:49:55;;;;;;;;;;;31.20;52.90;;;;;;5029000;28;20709;-54
2021/09/08 15:53:00;;;;;;;;;;;31.70;51.80;;;;;;5029162;28;19920;-50
2021/09/08 15:56:04;;;;;;;;;;;31.60;52.20;;;;;;5030926;28;19916;-52
2021/09/08 15:59:09;;;;;;;;;;;30.60;52.80;;;;;;5033778;28;20410;-52
2021/09/08 16:02:13;;;;;;;;;;;30.30;53.40;;;;;;5032657;28;20291;-52
2021/09/08 16:05:19;;;;;;;;;;;30.30;53.20;;;;;;5033066;28;20405;-53
2021/09/08 16:08:24;;;;;;;;;;;29.50;54.30;;;;;;5033729;28;19916;-60
2021/09/08 16:11:32;;;;;;;;;;;29.30;54.20;;;;;;5033345;28;19916;-53
2021/09/08 16:14:36;;;;;;;;;;;29.20;54.20;;;;;;5032536;28;19913;-50
2021/09/08 16:17:40;;;;;;;;;;;29.00;54.70;;;;;;5033226;28;19928;-52
2021/09/08 16:20:44;;;;;;;;;;;28.70;55.50;;;;;;5013404;28;19910;-50
2021/09/08 16:23:49;;;;;;;;;;;28.60;54.90;;;;;;5029423;28;20399;-51
2021/09/08 16:26:53;;;;;;;;;;;28.30;55.50;;;;;;5032438;28;20387;-51
2021/09/08 16:29:58;;;;;;;;;;;28.40;55.40;;;;;;5033396;28;20402;-51
2021/09/08 16:33:01;;;;;;;;;;;28.70;56.00;;;;;;5032183;28;19917;-52
2021/09/08 16:36:05;;;;;;;;;;;28.80;55.30;;;;;;5031064;28;19924;-52
2021/09/08 16:39:09;;;;;;;;;;;28.90;55.40;;;;;;5033257;28;20391;-52
2021/09/08 16:42:13;;;;;;;;;;;28.70;55.50;;;;;;5032422;28;19920;-53
2021/09/08 16:45:17;;;;;;;;;;;28.30;55.50;;;;;;5031954;28;19928;-52
2021/09/08 16:48:22;;;;;;;;;;;28.30;56.00;;;;;;5033023;28;19920;-52
2021/09/08 16:51:26;;;;;;;;;;;28.30;56.00;;;;;;5031824;28;19920;-51
2021/09/08 16:54:32;;;;;;;;;;;28.10;56.40;;;;;;5031829;28;20382;-53
2021/09/08 16:57:37;;;;;;;;;;;28.00;56.70;;;;;;5033120;28;19939;-51
2021/09/08 17:00:41;;;;;;;;;;;27.90;56.90;;;;;;5032673;28;19925;-52
2021/09/08 17:03:46;;;;;;;;;;;27.80;57.50;;;;;;5031798;28;20410;-52
2021/09/08 17:06:50;;;;;;;;;;;27.70;57.30;;;;;;5031489;28;19916;-52
2021/09/08 17:09:54;;;;;;;;;;;27.50;58.10;;;;;;5032751;28;19920;-52
2021/09/08 17:12:58;;;;;;;;;;;27.30;58.50;;;;;;5030230;28;20410;-52
2021/09/08 17:16:02;;;;;;;;;;;27.00;59.00;;;;;;5031951;28;20393;-54
2021/09/08 17:19:07;;;;;;;;;;;26.90;59.20;;;;;;5032621;28;19924;-53
2021/09/08 17:22:12;;;;;;;;;;;26.90;59.60;;;;;;5031055;28;19916;-51
2021/09/08 17:25:17;;;;;;;;;;;26.80;59.90;;;;;;5031595;28;19916;-54
2021/09/08 17:28:22;;;;;;;;;;;26.70;59.90;;;;;;5032466;28;20317;-51
2021/09/08 17:31:28;;;;;;;;;;;26.50;60.50;;;;;;5030763;28;19927;-51
2021/09/08 17:34:32;;;;;;;;;;;26.40;60.30;;;;;;5031272;28;19992;-52
2021/09/08 17:37:36;;;;;;;;;;;26.30;60.50;;;;;;5032249;28;20489;-51
2021/09/08 17:40:52;;;;;;;;;;;26.20;60.10;;;;;;5031360;28;20015;-52
2021/09/08 17:43:56;;;;;;;;;;;26.10;60.40;;;;;;5030422;28;19916;-51
2021/09/08 17:47:02;;;;;;;;;;;25.90;60.90;;;;;;5031675;28;19916;-52
2021/09/08 17:50:10;;;;;;;;;;;25.60;61.10;;;;;;5031925;28;20387;-52
2021/09/08 17:53:14;;;;;;;;;;;25.50;61.10;;;;;;5029950;28;20398;-51
2021/09/08 17:56:19;;;;;;;;;;;25.40;61.30;;;;;;5031492;28;19916;-51